Airfield :
LOGIN :

Register | Disclaimer

   EN    FR    IT 

 










Legend :    VFR   Marginal VFR   IFR   Intensive IFR   Very Intensive IFR
Visi :
Ceiling :
>= 8 km
>= 3000ft
5 to 8 km
1000 to 3000 ft
1500m to 5 km
500 to 1000 ft
800 to 1500m
200 to 500 ft
< 800m
< 200 ft
Symbols :   Thunderstorms  Fog  Heavy snow  Heavy precipitations  Wind > 20 kt
SIGMETs :     Misc.  Thunderstorms  Icing  Turbulence  Mountain Waves  Volcanic Ashes






- Airport Elevation : 1900 ft
- IATA code : FEZ


GMFF - Fez Saiss

CURRENT METAR :
  • 151730Z 23014KT 9999 SCT013 BKN023 FEW033CB 08/06 Q1011 TEMPO 22016G28KT 5000 SHRA

EXPIRED METARs :
  • 151700Z 23014KT 9999 SCT013 BKN023 FEW033CB 08/06 Q1011 TEMPO 22016G28KT 5000 SHRA
  • 151630Z 23019KT 9999 SCT013 BKN023 FEW033CB 09/05 Q1011 TEMPO 22016G28KT 5000 SHRA
  • 151600Z 23012KT 9999 SCT016 BKN023 FEW033CB 08/07 Q1011 TEMPO 22016G28KT 5000 SHRA
  • 151530Z 24013KT 9999 SCT013 BKN023 FEW033CB 08/07 Q1011 TEMPO 22016G28KT 5000 SHRA
  • 151500Z 25013KT 3000 -RA SCT013 BKN020 FEW033CB 07/07 Q1011 RESHRA TEMPO 22016G28KT SHRA

TAF TAF GMFF
Valid from the 15 at 18:00 until the 17 at 00:00 UTC


151700Z 1518/1624 22016KT 9999 SCT013 BKN020 FEW033CB
TEMPO 1518/1523 22018G28KT 2000 SHRA
BECMG 1600/1602 RA SCT010 BKN020
BECMG 1609/1612 32008KT NSW
BECMG 1616/1620 CAVOK



MET'MAP, your aeronautical weather chart ! - Copyright ORBIFLY December 2007 - Disclaimer

ORBIFLY MET'MAP TEAM :

Programming & Development : Alexandra Zaïnal
Concept & Development : Baudouin d'Aumeries
Co-Development & Prog : Marc-Olivier Méhu
Technical & hardware support : Manuel Goepfert

Contact : metmap@orbifly.com




SOURCES & CREDITS :

   NOAA